This is the latest recevied weather packets stored in our database for station/object N8AMF. If no packets are shown the sender has not sent any weather packets the latest 1 day(s).
| Time | Temp. | Humidity | Pressure | Rain* | Wind** | Luminosity | Snow |
|---|---|---|---|---|---|---|---|
| 1778026360 | 9.44° C | 98% | 1007.3 hPa | 1.78 mm | 1.34 m/s, 331° | 1 W/m² | - |
| 1778026057 | 9.44° C | 98% | 1007.2 hPa | 2.29 mm | 0.89 m/s, 27° | 3 W/m² | - |
| 1778025755 | 9.44° C | 98% | 1007.2 hPa | 3.05 mm | 0.89 m/s, 353° | 2 W/m² | - |
| 1778025452 | 9.44° C | 98% | 1007.1 hPa | 3.56 mm | 0 m/s | 3 W/m² | - |
| 1778025149 | 9.44° C | 98% | 1007 hPa | 3.05 mm | 1.34 m/s, 61° | 3 W/m² | - |
| 1778024846 | 9.44° C | 98% | 1006.9 hPa | 2.29 mm | 0 m/s | 8 W/m² | - |
| 1778024543 | 9.44° C | 98% | 1007 hPa | 1.78 mm | 1.79 m/s, 91° | 14 W/m² | - |
| 1778024240 | 10° C | 98% | 1007 hPa | 0.51 mm | 0 m/s | 9 W/m² | - |
| 1778023938 | 10° C | 98% | 1007 hPa | 0.51 mm | 0 m/s | 5 W/m² | - |
| 1778023635 | 10° C | 98% | 1006.9 hPa | 0.51 mm | 0.45 m/s, 330° | 8 W/m² | - |
| 1778023332 | 10° C | 98% | 1007.2 hPa | 0.51 mm | 1.34 m/s, 48° | 8 W/m² | - |
| 1778023029 | 10° C | 98% | 1007.3 hPa | 0.51 mm | 1.34 m/s, 72° | 22 W/m² | - |
| 1778022728 | 10° C | 98% | 1007.1 hPa | 0.51 mm | 0 m/s | 20 W/m² | - |
| 1778022426 | 10° C | 97% | 1007 hPa | 1.27 mm | 0.89 m/s, 42° | 29 W/m² | - |
| 1778022122 | 10° C | 97% | 1007.5 hPa | 5.33 mm | 0 m/s | 38 W/m² | - |
| 1778021818 | 10° C | 97% | 1007.8 hPa | 7.87 mm | 0.89 m/s, 33° | 20 W/m² | - |
| 1778021515 | 10° C | 97% | 1007.9 hPa | 7.11 mm | 0 m/s | 11 W/m² | - |
| 1778021211 | 10° C | 97% | 1007.8 hPa | 7.11 mm | 0.89 m/s, 359° | 10 W/m² | - |
| 1778020909 | 10° C | 97% | 1007.7 hPa | 3.56 mm | 0.89 m/s, 16° | 12 W/m² | - |
| 1778020606 | 10° C | 97% | 1007.7 hPa | 2.29 mm | 0.89 m/s, 26° | 12 W/m² | - |
| 1778020302 | 10° C | 97% | 1007.7 hPa | 4.83 mm | 0.89 m/s, 349° | 25 W/m² | - |
| 1778019998 | 10° C | 97% | 1007.9 hPa | 4.32 mm | 0 m/s | 13 W/m² | - |
| 1778019695 | 10° C | 97% | 1007.3 hPa | 2.29 mm | 0.89 m/s, 353° | 15 W/m² | - |
| 1778019392 | 10° C | 97% | 1007.1 hPa | 3.05 mm | 0.45 m/s, 50° | 28 W/m² | - |
| 1778019088 | 10.56° C | 97% | 1007.3 hPa | 3.05 mm | 0.45 m/s, 358° | 37 W/m² | - |
* Rain latest hour (hover to see other rain measurements)
** Current wind speed in m/s (hover to see current wind gust speed)